Moran, Minnesota
Current Conditions -  °F | °C
As of 10:13 PM on Tuesday 27 Jan 2015 (Local Time) from KSAZ Reporting Station
Overcast Overcast  
Wind Chill: -6°   Ceiling: 1300
Heat Index: -1°   Visibility: 10mi
Dew Point: -3°   Wind: 9mph
Humidity: 86%   Direction: 140°SE
Pressure: 30.02"   Gusts: 16mph
Location:  46.4416°N, 94.6389°W
Report Text: KSAZ 280413Z AUTO 14008G14KT 10SM OVC013 M01/M03 A3002 RMK AO2
Loading
Personal Weather Stations






























Interactive Weather Map New forecast layout! Learn more

10-Day Weather Forecast

Advertisements
Track Severe Weather on mobile